createdAt,value
2019-05-05T00:00:45.596Z,78.27
2019-05-05T00:03:36.007Z,78.48
2019-05-05T00:06:05.898Z,78.24
2019-05-05T00:08:35.216Z,78.54
2019-05-05T00:11:26.397Z,78.60
2019-05-05T00:14:04.581Z,78.67
2019-05-05T00:16:39.965Z,78.85
2019-05-05T00:19:08.962Z,79.43
2019-05-05T00:21:37.775Z,78.86
2019-05-05T00:24:07.170Z,78.64
2019-05-05T00:26:36.156Z,78.34
2019-05-05T00:29:05.217Z,78.56
2019-05-05T00:31:35.022Z,78.19
2019-05-05T00:34:05.018Z,78.31
2019-05-05T00:36:35.228Z,78.63
2019-05-05T00:39:05.097Z,79.51
2019-05-05T00:41:34.621Z,79.48
2019-05-05T00:44:04.764Z,79.78
2019-05-05T00:46:54.908Z,79.56
2019-05-05T00:49:25.020Z,78.93
2019-05-05T00:51:54.648Z,78.76
2019-05-05T00:54:24.434Z,78.25
2019-05-05T00:56:54.510Z,78.31
2019-05-05T00:59:28.663Z,78.76
2019-05-05T01:02:19.970Z,79.72
2019-05-05T01:05:05.463Z,79.57
2019-05-05T01:07:35.131Z,79.74
2019-05-05T01:10:05.017Z,80.65
2019-05-05T01:12:34.868Z,80.26
2019-05-05T01:15:04.784Z,80.41
2019-05-05T01:17:34.521Z,80.63
2019-05-05T01:20:06.797Z,80.43
2019-05-05T01:22:34.911Z,80.58
2019-05-05T01:25:05.423Z,80.13
2019-05-05T01:27:34.806Z,79.57
2019-05-05T01:30:04.904Z,79.82
2019-05-05T01:32:37.515Z,80.19
2019-05-05T01:35:06.855Z,80.11
2019-05-05T01:37:44.317Z,79.94
2019-05-05T01:40:41.106Z,80.04
2019-05-05T01:43:10.013Z,79.85
2019-05-05T01:45:38.998Z,79.62
2019-05-05T01:48:07.954Z,79.99
2019-05-05T01:50:36.950Z,80.44
2019-05-05T01:53:06.281Z,79.38
2019-05-05T01:55:35.447Z,79.42
2019-05-05T01:58:05.016Z,79.53
2019-05-05T02:00:34.742Z,79.24
2019-05-05T02:03:04.660Z,79.30
2019-05-05T02:05:34.780Z,78.95
2019-05-05T02:08:04.946Z,78.99
2019-05-05T02:10:34.899Z,78.96
2019-05-05T02:13:04.758Z,79.00
2019-05-05T02:15:34.331Z,79.29
2019-05-05T02:18:04.525Z,79.48
2019-05-05T02:20:44.877Z,79.63
2019-05-05T02:23:15.765Z,79.66
2019-05-05T02:25:44.864Z,79.71
2019-05-05T02:28:14.971Z,79.89
2019-05-05T02:31:05.399Z,79.61
2019-05-05T02:33:35.376Z,79.65
2019-05-05T02:36:05.572Z,79.59
2019-05-05T02:38:35.646Z,79.80
2019-05-05T02:41:05.317Z,79.81
2019-05-05T02:43:36.329Z,79.67
2019-05-05T02:46:16.529Z,79.56
2019-05-05T02:48:47.520Z,79.65
2019-05-05T02:51:17.611Z,79.53
2019-05-05T02:53:49.877Z,79.82
2019-05-05T02:56:25.428Z,79.91
2019-05-05T02:58:58.465Z,79.69
2019-05-05T03:01:40.558Z,79.46
2019-05-05T03:04:10.204Z,79.70
2019-05-05T03:06:43.764Z,79.59
2019-05-05T03:09:14.944Z,79.47
2019-05-05T03:11:48.233Z,80.14
2019-05-05T03:14:19.657Z,80.19
2019-05-05T03:16:49.758Z,80.25
2019-05-05T03:19:20.710Z,80.47
2019-05-05T03:21:49.887Z,80.56
2019-05-05T03:24:19.120Z,80.81
2019-05-05T03:26:48.322Z,81.63
2019-05-05T03:29:20.155Z,80.78
2019-05-05T03:31:50.730Z,80.90
2019-05-05T03:34:21.122Z,81.04
2019-05-05T03:36:50.870Z,81.17
2019-05-05T03:39:24.732Z,81.46
2019-05-05T03:42:07.904Z,81.60
2019-05-05T03:44:48.339Z,81.53
2019-05-05T03:47:18.359Z,81.80
2019-05-05T03:49:47.412Z,81.87
2019-05-05T03:52:16.406Z,81.90
2019-05-05T03:54:45.704Z,82.39
2019-05-05T03:57:15.101Z,82.57
2019-05-05T03:59:44.845Z,82.25
2019-05-05T04:02:34.080Z,82.07
2019-05-05T04:05:14.830Z,81.74
2019-05-05T04:07:44.043Z,80.82
2019-05-05T04:10:14.043Z,81.15
2019-05-05T04:12:43.637Z,81.23
2019-05-05T04:15:15.756Z,81.09
2019-05-05T04:17:50.912Z,81.09
2019-05-05T04:20:33.583Z,80.97
2019-05-05T04:23:03.747Z,81.14
2019-05-05T04:25:32.507Z,80.92
2019-05-05T04:28:01.665Z,80.79
2019-05-05T04:30:30.535Z,80.82
2019-05-05T04:32:59.356Z,80.82
2019-05-05T04:35:28.594Z,80.87
2019-05-05T04:37:57.530Z,80.93
2019-05-05T04:40:26.431Z,80.94
2019-05-05T04:42:55.292Z,79.80
2019-05-05T04:45:24.349Z,79.09
2019-05-05T04:47:57.290Z,79.21
2019-05-05T04:50:47.802Z,79.44
2019-05-05T04:53:21.443Z,79.38
2019-05-05T04:55:50.317Z,79.08
2019-05-05T04:58:19.135Z,79.55
2019-05-05T05:00:48.045Z,79.64
2019-05-05T05:03:25.488Z,80.22
2019-05-05T05:06:19.528Z,79.24
2019-05-05T05:08:48.352Z,78.94
2019-05-05T05:11:17.234Z,78.25
2019-05-05T05:13:46.434Z,78.05
2019-05-05T05:16:15.459Z,78.37
2019-05-05T05:18:44.748Z,78.14
2019-05-05T05:21:14.482Z,78.03
2019-05-05T05:23:44.373Z,77.62
2019-05-05T05:26:13.990Z,77.05
2019-05-05T05:28:44.773Z,76.49
2019-05-05T05:31:14.149Z,76.06
2019-05-05T05:33:43.720Z,75.83
2019-05-05T05:36:14.396Z,75.97
2019-05-05T05:38:45.218Z,75.74
2019-05-05T05:41:20.386Z,75.02
2019-05-05T05:44:04.846Z,74.91
2019-05-05T05:46:54.481Z,74.45
2019-05-05T05:49:29.903Z,73.89
2019-05-05T05:52:12.102Z,72.48
2019-05-05T05:54:29.479Z,72.13
2019-05-05T05:56:58.434Z,72.72
2019-05-05T05:59:27.443Z,71.21
2019-05-05T06:02:09.000Z,71.87
2019-05-05T06:04:26.749Z,71.38
2019-05-05T06:06:55.648Z,71.76
2019-05-05T06:09:24.607Z,71.16
2019-05-05T06:11:54.213Z,71.28
2019-05-05T06:14:24.695Z,71.77
2019-05-05T06:16:54.026Z,69.96
2019-05-05T06:19:24.610Z,69.49
2019-05-05T06:21:54.261Z,69.14
2019-05-05T06:24:24.006Z,69.04
2019-05-05T06:26:54.695Z,69.79
2019-05-05T06:29:23.970Z,69.27
2019-05-05T06:31:53.825Z,68.02
2019-05-05T06:34:24.448Z,67.39
2019-05-05T06:36:53.749Z,66.39
2019-05-05T06:39:24.160Z,66.09
2019-05-05T06:42:04.484Z,64.50
2019-05-05T06:44:49.865Z,63.20
2019-05-05T06:47:23.595Z,64.66
2019-05-05T06:49:54.082Z,63.94
2019-05-05T06:52:24.737Z,64.32
2019-05-05T06:54:54.293Z,65.08
2019-05-05T06:57:24.052Z,64.94
2019-05-05T06:59:54.388Z,60.97
2019-05-05T07:02:23.876Z,54.86
2019-05-05T07:04:54.626Z,47.29
2019-05-05T07:07:23.834Z,46.45
2019-05-05T07:09:54.285Z,46.11
2019-05-05T07:12:24.147Z,46.71
2019-05-05T07:14:53.799Z,46.18
2019-05-05T07:17:24.505Z,45.18
2019-05-05T07:19:54.362Z,42.78
2019-05-05T07:22:24.413Z,41.03
2019-05-05T07:24:54.305Z,39.64
2019-05-05T07:27:24.305Z,38.92
2019-05-05T07:29:54.140Z,36.38
2019-05-05T07:32:24.543Z,38.77
2019-05-05T07:35:25.189Z,39.30
2019-05-05T07:37:54.160Z,37.07
2019-05-05T07:40:24.130Z,37.25
2019-05-05T07:42:54.051Z,36.18
2019-05-05T07:45:25.741Z,36.06
2019-05-05T07:47:54.439Z,40.59
2019-05-05T07:50:31.668Z,40.86
2019-05-05T07:52:54.657Z,40.22
2019-05-05T07:55:23.824Z,40.87
2019-05-05T07:57:53.896Z,41.97
2019-05-05T08:00:24.042Z,42.67
2019-05-05T08:02:54.451Z,44.60
2019-05-05T08:05:24.585Z,45.17
2019-05-05T08:07:54.006Z,45.09
2019-05-05T08:10:24.144Z,45.66
2019-05-05T08:12:54.209Z,45.72
2019-05-05T08:15:24.222Z,46.52
2019-05-05T08:18:15.129Z,46.34
2019-05-05T08:20:46.725Z,47.76
2019-05-05T08:23:30.283Z,47.92
2019-05-05T08:26:11.036Z,47.84
2019-05-05T08:29:08.054Z,49.02
2019-05-05T08:32:05.389Z,51.83
2019-05-05T08:34:34.384Z,51.87
2019-05-05T08:37:04.366Z,53.11
2019-05-05T08:39:34.481Z,53.65
2019-05-05T08:42:04.408Z,54.01
2019-05-05T08:44:34.324Z,53.44
2019-05-05T08:47:04.425Z,52.70
2019-05-05T08:49:34.688Z,52.82
2019-05-05T08:52:04.291Z,52.24
2019-05-05T08:54:34.335Z,50.54
2019-05-05T08:57:04.211Z,52.40
2019-05-05T08:59:33.807Z,50.77
2019-05-05T09:02:04.563Z,50.57
2019-05-05T09:04:34.078Z,51.62
2019-05-05T09:07:05.022Z,52.80
2019-05-05T09:09:33.777Z,52.59
2019-05-05T09:12:04.544Z,51.89
2019-05-05T09:14:34.559Z,52.37
2019-05-05T09:17:04.407Z,53.23
2019-05-05T09:19:34.457Z,54.28
2019-05-05T09:22:06.704Z,56.26
2019-05-05T09:24:47.599Z,56.80
2019-05-05T09:27:36.222Z,56.38
2019-05-05T09:30:06.028Z,56.97
2019-05-05T09:32:34.831Z,55.89
2019-05-05T09:35:04.726Z,54.89
2019-05-05T09:37:34.068Z,53.95
2019-05-05T09:40:04.524Z,53.50
2019-05-05T09:42:34.161Z,54.32
2019-05-05T09:45:04.731Z,52.61
2019-05-05T09:47:34.400Z,52.26
2019-05-05T09:50:03.957Z,51.89
2019-05-05T09:52:33.805Z,52.30
2019-05-05T09:55:03.846Z,53.17
2019-05-05T09:57:34.399Z,52.46
2019-05-05T10:00:14.009Z,51.77
2019-05-05T10:02:44.202Z,50.79
2019-05-05T10:05:14.672Z,50.90
2019-05-05T10:07:44.219Z,48.64
2019-05-05T10:10:13.882Z,48.68
2019-05-05T10:12:44.561Z,47.73
2019-05-05T10:15:13.990Z,46.83
2019-05-05T10:17:42.909Z,47.22
2019-05-05T10:20:11.868Z,44.97
2019-05-05T10:22:51.871Z,44.97
2019-05-05T10:25:55.164Z,45.42
2019-05-05T10:28:33.947Z,45.52
2019-05-05T10:31:04.623Z,45.99
2019-05-05T10:33:59.889Z,45.45
2019-05-05T10:36:28.844Z,44.55
2019-05-05T10:39:04.404Z,43.61
2019-05-05T10:41:33.813Z,43.82
2019-05-05T10:44:03.647Z,42.64
2019-05-05T10:46:34.124Z,42.01
2019-05-05T10:49:03.661Z,43.59
2019-05-05T10:51:34.633Z,44.27
2019-05-05T10:54:04.014Z,43.40
2019-05-05T10:56:34.553Z,43.60
2019-05-05T10:59:03.980Z,43.31
2019-05-05T11:01:32.846Z,44.77
2019-05-05T11:04:02.098Z,44.65
2019-05-05T11:06:31.025Z,45.13
2019-05-05T11:09:00.181Z,45.99
2019-05-05T11:11:29.137Z,46.97
2019-05-05T11:13:58.217Z,47.36
2019-05-05T11:16:27.255Z,45.77
2019-05-05T11:18:56.236Z,44.77
2019-05-05T11:21:25.148Z,45.30
2019-05-05T11:23:54.156Z,45.17
2019-05-05T11:26:24.699Z,44.94
2019-05-05T11:28:53.914Z,43.53
2019-05-05T11:31:23.943Z,41.72
2019-05-05T11:34:10.710Z,42.11
2019-05-05T11:36:58.712Z,41.46
2019-05-05T11:39:27.820Z,41.92
2019-05-05T11:41:56.916Z,42.29
2019-05-05T11:44:26.054Z,42.15
2019-05-05T11:46:55.050Z,42.02
2019-05-05T11:49:24.545Z,40.98
2019-05-05T11:51:54.345Z,41.54
2019-05-05T11:54:24.604Z,41.00
2019-05-05T11:56:54.091Z,40.32
2019-05-05T11:59:23.809Z,40.46
2019-05-05T12:01:55.036Z,40.63
2019-05-05T12:04:24.114Z,40.74
2019-05-05T12:06:53.258Z,39.81
2019-05-05T12:09:31.423Z,40.07
2019-05-05T12:12:00.326Z,39.06
2019-05-05T12:14:31.098Z,38.53
2019-05-05T12:17:00.165Z,39.01
2019-05-05T12:19:29.285Z,38.77
2019-05-05T12:21:58.180Z,38.08
2019-05-05T12:24:30.906Z,37.83
2019-05-05T12:27:21.971Z,38.64
2019-05-05T12:29:54.800Z,39.55
2019-05-05T12:32:24.220Z,38.90
2019-05-05T12:34:53.869Z,38.93
2019-05-05T12:37:23.668Z,38.61
2019-05-05T12:39:54.583Z,39.40
2019-05-05T12:42:24.245Z,39.65
2019-05-05T12:45:04.394Z,39.79
2019-05-05T12:47:58.951Z,41.03
2019-05-05T12:50:28.118Z,40.44
2019-05-05T12:52:57.054Z,39.64
2019-05-05T12:55:39.038Z,38.41
2019-05-05T12:57:58.856Z,39.47
2019-05-05T13:00:27.762Z,39.26
2019-05-05T13:02:56.792Z,38.51
2019-05-05T13:05:25.802Z,36.97
2019-05-05T13:07:54.723Z,35.47
2019-05-05T13:10:24.368Z,35.53
2019-05-05T13:12:54.292Z,36.08
2019-05-05T13:15:24.717Z,38.00
2019-05-05T13:17:54.294Z,37.74
2019-05-05T13:20:38.428Z,38.06
2019-05-05T13:23:15.873Z,37.58
2019-05-05T13:25:59.407Z,37.71
2019-05-05T13:28:28.597Z,38.78
2019-05-05T13:30:57.537Z,38.82
2019-05-05T13:33:26.511Z,38.69
2019-05-05T13:35:55.600Z,39.54
2019-05-05T13:38:24.519Z,39.52
2019-05-05T13:40:54.409Z,38.07
2019-05-05T13:43:23.841Z,38.55
2019-05-05T13:46:10.452Z,37.94
2019-05-05T13:48:39.523Z,37.85
2019-05-05T13:51:08.728Z,38.17
2019-05-05T13:53:37.656Z,38.17
2019-05-05T13:56:11.519Z,39.36
2019-05-05T13:58:37.472Z,39.77
2019-05-05T14:01:09.594Z,40.68
2019-05-05T14:03:37.026Z,40.41
2019-05-05T14:06:06.064Z,40.79
2019-05-05T14:08:36.443Z,40.98
2019-05-05T14:11:05.695Z,39.61
2019-05-05T14:13:34.684Z,38.06
2019-05-05T14:16:03.959Z,38.86
2019-05-05T14:18:33.044Z,38.80
2019-05-05T14:21:01.991Z,38.46
2019-05-05T14:23:34.557Z,38.27
2019-05-05T14:26:03.889Z,38.82
2019-05-05T14:28:34.029Z,38.79
2019-05-05T14:31:14.074Z,39.22
2019-05-05T14:33:55.336Z,39.46
2019-05-05T14:37:04.954Z,40.41
2019-05-05T14:39:34.185Z,41.72
2019-05-05T14:42:04.472Z,41.98
2019-05-05T14:44:34.299Z,42.25
2019-05-05T14:47:03.368Z,41.47
2019-05-05T14:49:33.895Z,40.56
2019-05-05T14:52:04.456Z,40.41
2019-05-05T14:54:34.160Z,40.50
2019-05-05T14:57:04.573Z,40.97
2019-05-05T14:59:34.068Z,41.02
2019-05-05T15:02:04.278Z,39.44
2019-05-05T15:04:34.930Z,38.79
2019-05-05T15:07:15.456Z,39.38
2019-05-05T15:09:51.368Z,40.14
2019-05-05T15:12:36.955Z,40.98
2019-05-05T15:15:07.360Z,41.33
2019-05-05T15:17:37.092Z,42.26
2019-05-05T15:20:07.647Z,40.30
2019-05-05T15:22:36.684Z,39.41
2019-05-05T15:25:05.965Z,40.51
2019-05-05T15:27:35.033Z,41.74
2019-05-05T15:30:04.640Z,42.66
2019-05-05T15:32:34.402Z,43.73
2019-05-05T15:35:04.058Z,44.03
2019-05-05T15:37:33.119Z,44.59
2019-05-05T15:40:04.027Z,45.04
2019-05-05T15:42:33.489Z,45.31
2019-05-05T15:45:03.988Z,45.13
2019-05-05T15:47:34.326Z,44.94
2019-05-05T15:50:04.493Z,44.92
2019-05-05T15:52:35.132Z,45.26
2019-05-05T15:55:04.801Z,44.54
2019-05-05T15:57:33.826Z,44.20
2019-05-05T16:00:03.433Z,43.87
2019-05-05T16:02:32.595Z,42.78
2019-05-05T16:05:01.483Z,41.94
2019-05-05T16:07:30.587Z,41.01
2019-05-05T16:09:59.606Z,41.17
2019-05-05T16:12:34.146Z,40.83
2019-05-05T16:15:10.139Z,39.13
2019-05-05T16:17:47.799Z,39.09
2019-05-05T16:20:24.290Z,39.61
2019-05-05T16:23:27.039Z,39.86
2019-05-05T16:25:56.020Z,40.53
2019-05-05T16:28:25.226Z,41.18
2019-05-05T16:30:56.125Z,40.02
2019-05-05T16:33:24.802Z,40.79
2019-05-05T16:35:53.723Z,40.84
2019-05-05T16:38:24.043Z,40.33
2019-05-05T16:40:53.757Z,45.33
2019-05-05T16:43:24.720Z,45.33
2019-05-05T16:45:53.847Z,50.12
2019-05-05T16:48:25.346Z,56.88
2019-05-05T16:50:54.125Z,60.45
2019-05-05T16:53:36.083Z,59.29
2019-05-05T16:56:07.172Z,63.79
2019-05-05T16:58:36.269Z,64.05
2019-05-05T17:01:07.987Z,65.42
2019-05-05T17:03:37.054Z,66.07
2019-05-05T17:06:06.084Z,67.83
2019-05-05T17:08:35.211Z,71.36
2019-05-05T17:11:04.138Z,72.48
2019-05-05T17:13:44.319Z,72.57
2019-05-05T17:16:30.179Z,73.69
2019-05-05T17:19:08.377Z,72.85
2019-05-05T17:21:55.269Z,73.75
2019-05-05T17:24:24.274Z,74.99
2019-05-05T17:26:54.857Z,74.06
2019-05-05T17:29:24.135Z,73.52
2019-05-05T17:31:53.972Z,75.20
2019-05-05T17:34:24.704Z,74.91
2019-05-05T17:36:54.142Z,73.76
2019-05-05T17:39:24.750Z,74.02
2019-05-05T17:42:05.121Z,75.70
2019-05-05T17:44:46.538Z,74.68
2019-05-05T17:47:19.878Z,74.65
2019-05-05T17:50:14.417Z,74.21
2019-05-05T17:52:53.764Z,73.16
2019-05-05T17:55:30.749Z,73.76
2019-05-05T17:58:02.554Z,74.15
2019-05-05T18:00:34.267Z,75.90
2019-05-05T18:03:04.381Z,75.36
2019-05-05T18:05:51.593Z,74.92
2019-05-05T18:08:38.192Z,74.25
2019-05-05T18:11:13.911Z,74.18
2019-05-05T18:13:46.497Z,73.77
2019-05-05T18:16:16.940Z,73.69
2019-05-05T18:18:45.918Z,71.66
2019-05-05T18:21:14.910Z,73.01
2019-05-05T18:23:44.252Z,72.53
2019-05-05T18:26:13.751Z,72.98
2019-05-05T18:28:44.751Z,73.06
2019-05-05T18:31:13.935Z,72.43
2019-05-05T18:33:42.954Z,72.89
2019-05-05T18:36:14.035Z,72.80
2019-05-05T18:38:44.486Z,73.34
2019-05-05T18:41:20.447Z,73.97
2019-05-05T18:44:03.831Z,72.70
2019-05-05T18:46:33.902Z,72.83
2019-05-05T18:49:04.370Z,72.80
2019-05-05T18:51:34.771Z,73.08
2019-05-05T18:54:04.278Z,73.32
2019-05-05T18:56:34.752Z,72.08
2019-05-05T18:59:06.436Z,72.05
2019-05-05T19:01:59.603Z,71.86
2019-05-05T19:04:42.973Z,70.83
2019-05-05T19:07:19.618Z,71.20
2019-05-05T19:09:53.791Z,71.00
2019-05-05T19:12:19.048Z,72.79
2019-05-05T19:14:47.953Z,72.70
2019-05-05T19:17:16.877Z,73.71
2019-05-05T19:19:49.394Z,73.32
2019-05-05T19:22:18.441Z,73.72
2019-05-05T19:24:47.351Z,73.84
2019-05-05T19:27:16.272Z,73.58
2019-05-05T19:29:46.262Z,72.65
2019-05-05T19:32:15.546Z,73.45
2019-05-05T19:34:44.515Z,73.16
2019-05-05T19:37:13.992Z,72.85
2019-05-05T19:39:43.034Z,73.03
2019-05-05T19:42:14.283Z,73.20
2019-05-05T19:44:43.780Z,72.35
2019-05-05T19:47:18.724Z,71.58
2019-05-05T19:50:09.600Z,72.33
2019-05-05T19:52:38.637Z,70.87
2019-05-05T19:55:07.893Z,70.98
2019-05-05T19:57:36.802Z,69.65
2019-05-05T20:00:07.355Z,70.10
2019-05-05T20:02:36.221Z,68.82
2019-05-05T20:05:05.464Z,68.92
2019-05-05T20:07:34.566Z,68.37
2019-05-05T20:10:04.135Z,68.53
2019-05-05T20:12:33.568Z,67.82
2019-05-05T20:15:04.262Z,67.26
2019-05-05T20:17:35.127Z,66.08
2019-05-05T20:20:05.433Z,66.37
2019-05-05T20:22:34.885Z,66.61
2019-05-05T20:25:04.392Z,65.14
2019-05-05T20:27:34.339Z,64.81
2019-05-05T20:30:06.482Z,65.29
2019-05-05T20:32:56.042Z,64.86
2019-05-05T20:35:35.425Z,64.75
2019-05-05T20:38:10.504Z,64.83
2019-05-05T20:40:40.992Z,63.89
2019-05-05T20:43:10.064Z,63.94
2019-05-05T20:45:39.164Z,63.91
2019-05-05T20:48:08.042Z,64.13
2019-05-05T20:50:37.281Z,64.28
2019-05-05T20:53:06.228Z,64.77
2019-05-05T20:55:35.064Z,65.08
2019-05-05T20:58:04.854Z,65.67
2019-05-05T21:00:34.736Z,65.92
2019-05-05T21:03:04.731Z,65.17
2019-05-05T21:05:34.471Z,65.00
2019-05-05T21:08:04.859Z,64.49
2019-05-05T21:10:34.747Z,63.86
2019-05-05T21:13:04.233Z,64.16
2019-05-05T21:15:33.969Z,64.22
2019-05-05T21:18:04.868Z,63.59
2019-05-05T21:20:34.722Z,63.21
2019-05-05T21:23:17.531Z,63.04
2019-05-05T21:25:53.842Z,63.05
2019-05-05T21:28:24.109Z,62.97
2019-05-05T21:30:53.970Z,62.28
2019-05-05T21:33:23.897Z,63.05
2019-05-05T21:35:55.064Z,63.13
2019-05-05T21:38:23.458Z,63.95
2019-05-05T21:40:52.359Z,64.22
2019-05-05T21:43:21.330Z,64.50
2019-05-05T21:45:50.296Z,65.13
2019-05-05T21:48:19.159Z,64.75
2019-05-05T21:50:54.259Z,63.84
2019-05-05T21:53:41.568Z,63.93
2019-05-05T21:56:47.816Z,65.81
2019-05-05T21:59:17.427Z,66.81
2019-05-05T22:01:49.267Z,66.81
2019-05-05T22:04:17.091Z,66.04
2019-05-05T22:06:46.067Z,65.98
2019-05-05T22:09:14.995Z,66.45
2019-05-05T22:11:44.232Z,66.68
2019-05-05T22:14:14.031Z,65.57
2019-05-05T22:16:44.579Z,65.57
2019-05-05T22:19:14.565Z,64.93
2019-05-05T22:21:50.867Z,63.84
2019-05-05T22:24:20.295Z,64.27
2019-05-05T22:26:49.508Z,65.06
2019-05-05T22:29:18.568Z,64.76
2019-05-05T22:31:47.464Z,64.63
2019-05-05T22:34:16.336Z,65.23
2019-05-05T22:36:45.300Z,65.08
2019-05-05T22:39:17.075Z,65.02
2019-05-05T22:41:48.320Z,65.55
2019-05-05T22:44:17.255Z,65.53
2019-05-05T22:46:46.554Z,65.43
2019-05-05T22:49:15.549Z,64.69
2019-05-05T22:51:44.910Z,63.99
2019-05-05T22:54:14.904Z,62.81
2019-05-05T22:56:44.846Z,62.81
2019-05-05T22:59:14.001Z,63.09
2019-05-05T23:01:42.928Z,62.71
2019-05-05T23:04:25.827Z,62.45
2019-05-05T23:06:58.882Z,62.74
2019-05-05T23:09:27.705Z,62.08
2019-05-05T23:11:56.784Z,62.58
2019-05-05T23:14:28.918Z,62.57
2019-05-05T23:17:11.550Z,62.00
2019-05-05T23:19:45.432Z,62.58
2019-05-05T23:22:27.503Z,62.81
2019-05-05T23:25:15.395Z,62.77
2019-05-05T23:27:47.264Z,62.46
2019-05-05T23:30:17.286Z,62.28
2019-05-05T23:32:46.881Z,61.70
2019-05-05T23:35:17.354Z,62.14
2019-05-05T23:37:46.585Z,62.38
2019-05-05T23:40:21.683Z,62.48
2019-05-05T23:42:50.926Z,62.51
2019-05-05T23:45:19.989Z,62.74
2019-05-05T23:47:48.877Z,62.99
2019-05-05T23:50:17.867Z,62.87
2019-05-05T23:52:46.865Z,63.09
2019-05-05T23:55:15.835Z,63.72
2019-05-05T23:57:44.880Z,63.53
